< < Back
Terminal Aerodrome Forecast


Current Version              Previous Versions:   1  2  3  4  5  6  7  8  9  

Terminal Aerodrome Forecast

441
FTUS44 KMOB 301138
TAFMOB
TAF
KMOB 301138Z 3012/0112 15007KT P6SM BKN012 OVC019
     FM301500 16015KT P6SM OVC025
      TEMPO 3020/3024 4SM TSRA BKN015CB
     FM010200 14006KT P6SM FEW030 BKN070
     FM010600 17004KT 3SM BR OVC007=



Latest METAR

622
SAUS80 KWBC 301300
MTRMOB
METAR KMOB 301256Z 13013KT 10SM SCT014 BKN018 BKN026 24/23 A2989 RMK AO2
SLP120 TCU DSNT E T02440228


USA.gov is the U.S. government's official web portal to all federal, state and local government web resources and services.